< < Back
Terminal Aerodrome Forecast


Current Version              Previous Versions:   1  2  3  4  5  6  7  8  9  

Terminal Aerodrome Forecast

562
FTUS42 KGSP 271121
TAFGSP
TAF
KGSP 271121Z 2712/2812 21004KT P6SM FEW050
     FM271500 18007KT P6SM SCT050
     FM280200 14003KT P6SM FEW060
     FM280700 00000KT P6SM FEW250=

Latest METAR

849
SAUS70 KWBC 281200 RRF
MTRGSP
METAR KGSP 281153Z 00000KT 9SM CLR 20/17 A3016 RMK AO2 SLP203 T02000172
10200 20161 53008


USA.gov is the U.S. government's official web portal to all federal, state and local government web resources and services.